sensor_id;sensor_type;location;lat;lon;timestamp;pressure;altitude;pressure_sealevel;temperature;humidity
79285;BME280;68734;50.452;11.636;2023-03-24T00:00:51;94633.84;;;9.32;74.75
79285;BME280;68734;50.452;11.636;2023-03-24T00:03:16;94643.00;;;9.31;74.50
79285;BME280;68734;50.452;11.636;2023-03-24T00:05:42;94635.47;;;9.28;74.62
79285;BME280;68734;50.452;11.636;2023-03-24T00:08:09;94629.56;;;9.21;74.46
79285;BME280;68734;50.452;11.636;2023-03-24T00:10:34;94630.09;;;9.18;74.69
79285;BME280;68734;50.452;11.636;2023-03-24T00:13:01;94626.84;;;9.16;74.47
79285;BME280;68734;50.452;11.636;2023-03-24T00:15:27;94640.31;;;9.21;74.92
79285;BME280;68734;50.452;11.636;2023-03-24T00:17:53;94628.47;;;9.12;75.24
79285;BME280;68734;50.452;11.636;2023-03-24T00:20:22;94630.13;;;9.08;75.09
79285;BME280;68734;50.452;11.636;2023-03-24T00:22:52;94634.41;;;9.14;75.64
79285;BME280;68734;50.452;11.636;2023-03-24T00:25:26;94638.19;;;9.13;75.46
79285;BME280;68734;50.452;11.636;2023-03-24T00:27:53;94628.50;;;9.02;76.46
79285;BME280;68734;50.452;11.636;2023-03-24T00:30:21;94630.16;;;8.97;76.64
79285;BME280;68734;50.452;11.636;2023-03-24T00:32:48;94645.78;;;9.01;76.27
79285;BME280;68734;50.452;11.636;2023-03-24T00:35:15;94636.63;;;8.96;76.71
79285;BME280;68734;50.452;11.636;2023-03-24T00:37:41;94633.94;;;8.96;76.70
79285;BME280;68734;50.452;11.636;2023-03-24T00:40:10;94632.84;;;8.92;76.69
79285;BME280;68734;50.452;11.636;2023-03-24T00:42:41;94631.22;;;8.91;76.83
79285;BME280;68734;50.452;11.636;2023-03-24T00:45:11;94628.56;;;8.86;76.95
79285;BME280;68734;50.452;11.636;2023-03-24T00:47:37;94624.28;;;8.80;77.12
79285;BME280;68734;50.452;11.636;2023-03-24T00:50:05;94620.22;;;8.83;77.40
79285;BME280;68734;50.452;11.636;2023-03-24T00:52:32;94621.03;;;8.78;77.44
79285;BME280;68734;50.452;11.636;2023-03-24T00:54:59;94620.50;;;8.71;77.55
79285;BME280;68734;50.452;11.636;2023-03-24T00:57:27;94622.38;;;8.75;77.64
79285;BME280;68734;50.452;11.636;2023-03-24T01:00:00;94625.88;;;8.71;77.59
79285;BME280;68734;50.452;11.636;2023-03-24T01:02:33;94622.66;;;8.69;77.92
79285;BME280;68734;50.452;11.636;2023-03-24T01:04:59;94611.88;;;8.69;77.98
79285;BME280;68734;50.452;11.636;2023-03-24T01:07:28;94614.34;;;8.60;78.42
79285;BME280;68734;50.452;11.636;2023-03-24T01:09:55;94618.34;;;8.63;78.42
79285;BME280;68734;50.452;11.636;2023-03-24T01:12:35;94592.53;;;8.46;78.81
79285;BME280;68734;50.452;11.636;2023-03-24T01:15:11;94623.72;;;8.57;79.04
79285;BME280;68734;50.452;11.636;2023-03-24T01:17:37;94623.72;;;8.57;78.86
79285;BME280;68734;50.452;11.636;2023-03-24T01:20:03;94626.44;;;8.57;78.92
79285;BME280;68734;50.452;11.636;2023-03-24T01:22:33;94628.56;;;8.55;79.23
79285;BME280;68734;50.452;11.636;2023-03-24T01:25:04;94625.34;;;8.53;79.67
79285;BME280;68734;50.452;11.636;2023-03-24T01:27:30;94620.53;;;8.50;80.01
79285;BME280;68734;50.452;11.636;2023-03-24T01:29:59;94616.47;;;8.48;80.19
79285;BME280;68734;50.452;11.636;2023-03-24T01:32:26;94617.81;;;8.45;81.02
79285;BME280;68734;50.452;11.636;2023-03-24T01:34:52;94629.66;;;8.49;81.11
79285;BME280;68734;50.452;11.636;2023-03-24T01:37:17;94615.41;;;8.44;81.30
79285;BME280;68734;50.452;11.636;2023-03-24T01:39:43;94608.66;;;8.36;81.72
79285;BME280;68734;50.452;11.636;2023-03-24T01:42:20;94621.59;;;8.49;81.42
79285;BME280;68734;50.452;11.636;2023-03-24T01:44:47;94600.06;;;8.34;82.14
79285;BME280;68734;50.452;11.636;2023-03-24T01:47:13;94601.41;;;8.42;82.09
79285;BME280;68734;50.452;11.636;2023-03-24T01:49:59;94592.53;;;8.36;82.35
79285;BME280;68734;50.452;11.636;2023-03-24T01:52:33;94608.69;;;8.46;82.48
79285;BME280;68734;50.452;11.636;2023-03-24T01:55:04;94594.41;;;8.41;83.01
79285;BME280;68734;50.452;11.636;2023-03-24T01:57:39;94594.69;;;8.44;83.14
79285;BME280;68734;50.452;11.636;2023-03-24T02:00:08;94598.16;;;8.50;83.23
79285;BME280;68734;50.452;11.636;2023-03-24T02:02:37;94585.53;;;8.50;83.33
79285;BME280;68734;50.452;11.636;2023-03-24T02:05:07;94573.16;;;8.44;84.38
79285;BME280;68734;50.452;11.636;2023-03-24T02:07:41;94565.34;;;8.43;84.73
79285;BME280;68734;50.452;11.636;2023-03-24T02:10:15;94571.81;;;8.42;85.03
79285;BME280;68734;50.452;11.636;2023-03-24T02:12:43;94572.88;;;8.41;85.11
79285;BME280;68734;50.452;11.636;2023-03-24T02:15:16;94562.38;;;8.39;85.67
79285;BME280;68734;50.452;11.636;2023-03-24T02:18:12;94554.03;;;8.35;85.47
79285;BME280;68734;50.452;11.636;2023-03-24T02:45:35;94539.25;;;8.02;88.15
79285;BME280;68734;50.452;11.636;2023-03-24T02:55:46;94521.50;;;8.01;88.03
79285;BME280;68734;50.452;11.636;2023-03-24T02:58:19;94518.28;;;8.04;88.04
79285;BME280;68734;50.452;11.636;2023-03-24T03:01:04;94522.56;;;8.05;87.83
79285;BME280;68734;50.452;11.636;2023-03-24T03:03:41;94499.47;;;8.04;87.69
79285;BME280;68734;50.452;11.636;2023-03-24T03:06:26;94503.75;;;8.10;86.97
79285;BME280;68734;50.452;11.636;2023-03-24T03:08:51;94500.25;;;8.15;86.72
79285;BME280;68734;50.452;11.636;2023-03-24T03:11:18;94490.59;;;8.14;86.61
79285;BME280;68734;50.452;11.636;2023-03-24T03:13:53;94470.94;;;8.08;86.56
79285;BME280;68734;50.452;11.636;2023-03-24T03:16:37;94483.84;;;8.11;86.30
79285;BME280;68734;50.452;11.636;2023-03-24T03:19:08;94486.81;;;8.05;86.49
79285;BME280;68734;50.452;11.636;2023-03-24T03:21:39;94479.03;;;7.98;86.54
79285;BME280;68734;50.452;11.636;2023-03-24T03:24:34;94476.88;;;7.95;86.42
79285;BME280;68734;50.452;11.636;2023-03-24T03:27:01;94466.38;;;7.93;86.37
79285;BME280;68734;50.452;11.636;2023-03-24T03:29:32;94462.09;;;7.87;86.33
79285;BME280;68734;50.452;11.636;2023-03-24T03:32:04;94454.84;;;7.83;86.25
79285;BME280;68734;50.452;11.636;2023-03-24T03:34:48;94458.59;;;7.82;86.61
79285;BME280;68734;50.452;11.636;2023-03-24T03:37:26;94443.00;;;7.78;86.32
79285;BME280;68734;50.452;11.636;2023-03-24T03:40:05;94447.31;;;7.85;85.86
79285;BME280;68734;50.452;11.636;2023-03-24T03:42:34;94449.47;;;7.83;85.96
79285;BME280;68734;50.452;11.636;2023-03-24T03:45:00;94447.28;;;7.79;86.42
79285;BME280;68734;50.452;11.636;2023-03-24T03:47:25;94452.69;;;7.74;86.42
79285;BME280;68734;50.452;11.636;2023-03-24T03:49:54;94456.72;;;7.77;86.22
79285;BME280;68734;50.452;11.636;2023-03-24T03:52:22;94451.06;;;7.78;86.29
79285;BME280;68734;50.452;11.636;2023-03-24T03:54:49;94439.78;;;7.66;86.45
79285;BME280;68734;50.452;11.636;2023-03-24T03:57:16;94450.00;;;7.69;86.88
79285;BME280;68734;50.452;11.636;2023-03-24T03:59:43;94441.94;;;7.64;87.05
79285;BME280;68734;50.452;11.636;2023-03-24T04:08:22;94422.88;;;7.76;86.58
79285;BME280;68734;50.452;11.636;2023-03-24T04:26:49;94439.22;;;8.10;85.43
79285;BME280;68734;50.452;11.636;2023-03-24T04:32:09;94432.75;;;8.16;85.75
79285;BME280;68734;50.452;11.636;2023-03-24T04:34:45;94412.31;;;8.10;85.15
79285;BME280;68734;50.452;11.636;2023-03-24T04:37:30;94426.00;;;8.19;85.58
79285;BME280;68734;50.452;11.636;2023-03-24T04:40:04;94430.03;;;8.22;85.15
79285;BME280;68734;50.452;11.636;2023-03-24T04:42:38;94423.31;;;8.19;85.33
79285;BME280;68734;50.452;11.636;2023-03-24T04:45:06;94410.16;;;8.12;85.19
79285;BME280;68734;50.452;11.636;2023-03-24T04:47:37;94425.22;;;8.18;85.29
79285;BME280;68734;50.452;11.636;2023-03-24T04:50:09;94432.72;;;8.22;85.33
79285;BME280;68734;50.452;11.636;2023-03-24T04:52:37;94422.78;;;8.22;85.52
79285;BME280;68734;50.452;11.636;2023-03-24T04:57:51;94419.25;;;8.42;84.40
79285;BME280;68734;50.452;11.636;2023-03-24T05:00:17;94409.56;;;8.46;83.95
79285;BME280;68734;50.452;11.636;2023-03-24T05:02:43;94403.34;;;8.46;83.82
79285;BME280;68734;50.452;11.636;2023-03-24T05:05:10;94403.63;;;8.49;83.74
79285;BME280;68734;50.452;11.636;2023-03-24T05:07:35;94402.25;;;8.57;83.75
79285;BME280;68734;50.452;11.636;2023-03-24T05:10:02;94400.34;;;8.57;83.88
79285;BME280;68734;50.452;11.636;2023-03-24T05:12:27;94395.50;;;8.59;83.52
79285;BME280;68734;50.452;11.636;2023-03-24T05:14:55;94382.56;;;8.67;83.32
79285;BME280;68734;50.452;11.636;2023-03-24T05:17:20;94379.81;;;8.72;83.01
79285;BME280;68734;50.452;11.636;2023-03-24T05:19:46;94363.47;;;8.63;82.88
79285;BME280;68734;50.452;11.636;2023-03-24T05:22:13;94363.66;;;8.72;81.96
79285;BME280;68734;50.452;11.636;2023-03-24T05:24:39;94363.13;;;8.70;82.03
79285;BME280;68734;50.452;11.636;2023-03-24T05:27:04;94358.88;;;8.64;82.08
79285;BME280;68734;50.452;11.636;2023-03-24T05:29:30;94363.19;;;8.65;82.02
79285;BME280;68734;50.452;11.636;2023-03-24T05:31:55;94357.06;;;8.54;82.29
79285;BME280;68734;50.452;11.636;2023-03-24T05:34:21;94365.09;;;8.59;82.48
79285;BME280;68734;50.452;11.636;2023-03-24T05:36:47;94364.28;;;8.58;82.56
79285;BME280;68734;50.452;11.636;2023-03-24T05:39:12;94360.22;;;8.66;82.07
79285;BME280;68734;50.452;11.636;2023-03-24T05:41:37;94340.03;;;8.64;81.90
79285;BME280;68734;50.452;11.636;2023-03-24T05:44:03;94342.97;;;8.72;81.64
79285;BME280;68734;50.452;11.636;2023-03-24T05:46:28;94361.16;;;8.86;81.48
79285;BME280;68734;50.452;11.636;2023-03-24T05:48:54;94345.31;;;8.84;81.04
79285;BME280;68734;50.452;11.636;2023-03-24T05:51:19;94360.59;;;8.94;80.55
79285;BME280;68734;50.452;11.636;2023-03-24T05:53:45;94359.25;;;8.96;80.73
79285;BME280;68734;50.452;11.636;2023-03-24T05:56:10;94374.75;;;9.10;80.17
79285;BME280;68734;50.452;11.636;2023-03-24T05:58:36;94364.81;;;9.10;79.97
79285;BME280;68734;50.452;11.636;2023-03-24T06:01:07;94366.66;;;9.15;79.73
79285;BME280;68734;50.452;11.636;2023-03-24T06:03:34;94370.94;;;9.16;79.55
79285;BME280;68734;50.452;11.636;2023-03-24T06:06:06;94384.91;;;9.23;79.35
79285;BME280;68734;50.452;11.636;2023-03-24T06:08:32;94383.31;;;9.22;79.31
79285;BME280;68734;50.452;11.636;2023-03-24T06:11:02;94383.78;;;9.29;79.48
79285;BME280;68734;50.452;11.636;2023-03-24T06:13:29;94379.19;;;9.30;78.75
79285;BME280;68734;50.452;11.636;2023-03-24T06:15:55;94372.47;;;9.32;78.83
79285;BME280;68734;50.452;11.636;2023-03-24T06:18:23;94380.53;;;9.32;79.20
79285;BME280;68734;50.452;11.636;2023-03-24T06:20:54;94391.84;;;9.34;78.69
79285;BME280;68734;50.452;11.636;2023-03-24T06:23:22;94382.66;;;9.35;79.33
79285;BME280;68734;50.452;11.636;2023-03-24T06:25:51;94368.66;;;9.33;77.92
79285;BME280;68734;50.452;11.636;2023-03-24T06:28:19;94379.44;;;9.33;78.19
79285;BME280;68734;50.452;11.636;2023-03-24T06:30:45;94383.72;;;9.39;79.17
79285;BME280;68734;50.452;11.636;2023-03-24T06:33:14;94392.31;;;9.42;78.62
79285;BME280;68734;50.452;11.636;2023-03-24T06:35:40;94386.69;;;9.38;78.89
79285;BME280;68734;50.452;11.636;2023-03-24T06:38:06;94398.28;;;9.38;78.49
79285;BME280;68734;50.452;11.636;2023-03-24T06:40:32;94403.59;;;9.49;78.14
79285;BME280;68734;50.452;11.636;2023-03-24T06:42:59;94399.25;;;9.53;78.59
79285;BME280;68734;50.452;11.636;2023-03-24T06:45:29;94397.59;;;9.57;77.97
79285;BME280;68734;50.452;11.636;2023-03-24T06:47:54;94399.72;;;9.60;78.04
79285;BME280;68734;50.452;11.636;2023-03-24T06:50:21;94414.53;;;9.63;78.48
79285;BME280;68734;50.452;11.636;2023-03-24T06:52:47;94409.44;;;9.61;78.44
79285;BME280;68734;50.452;11.636;2023-03-24T06:55:12;94423.91;;;9.70;78.86
79285;BME280;68734;50.452;11.636;2023-03-24T06:57:38;94428.22;;;9.71;79.66
79285;BME280;68734;50.452;11.636;2023-03-24T07:00:05;94427.88;;;9.78;79.75
79285;BME280;68734;50.452;11.636;2023-03-24T07:02:31;94434.09;;;9.78;80.13
79285;BME280;68734;50.452;11.636;2023-03-24T07:05:01;94442.13;;;9.84;80.37
79285;BME280;68734;50.452;11.636;2023-03-24T07:07:31;94451.56;;;9.86;80.37
79285;BME280;68734;50.452;11.636;2023-03-24T07:09:57;94439.72;;;9.82;80.90
79285;BME280;68734;50.452;11.636;2023-03-24T07:12:22;94450.81;;;9.81;80.89
79285;BME280;68734;50.452;11.636;2023-03-24T07:14:48;94452.66;;;9.80;81.75
79285;BME280;68734;50.452;11.636;2023-03-24T07:17:13;94456.53;;;9.69;82.14
79285;BME280;68734;50.452;11.636;2023-03-24T07:19:38;94445.53;;;9.65;82.87
79285;BME280;68734;50.452;11.636;2023-03-24T07:22:04;94456.84;;;9.62;83.84
79285;BME280;68734;50.452;11.636;2023-03-24T07:24:33;94437.53;;;9.50;84.07
79285;BME280;68734;50.452;11.636;2023-03-24T07:26:58;94442.13;;;9.49;84.23
79285;BME280;68734;50.452;11.636;2023-03-24T07:29:24;94438.09;;;9.47;84.24
79285;BME280;68734;50.452;11.636;2023-03-24T07:31:49;94436.94;;;9.58;84.51
79285;BME280;68734;50.452;11.636;2023-03-24T07:34:17;94445.78;;;9.64;83.94
79285;BME280;68734;50.452;11.636;2023-03-24T07:36:45;94429.16;;;9.51;84.27
79285;BME280;68734;50.452;11.636;2023-03-24T07:39:10;94435.63;;;9.55;84.38
79285;BME280;68734;50.452;11.636;2023-03-24T07:41:37;94436.41;;;9.56;84.51
79285;BME280;68734;50.452;11.636;2023-03-24T07:44:02;94435.97;;;9.44;84.43
79285;BME280;68734;50.452;11.636;2023-03-24T07:46:28;94433.78;;;9.46;85.22
79285;BME280;68734;50.452;11.636;2023-03-24T07:48:53;94419.00;;;9.38;84.83
79285;BME280;68734;50.452;11.636;2023-03-24T07:51:19;94439.69;;;9.48;85.42
79285;BME280;68734;50.452;11.636;2023-03-24T07:53:45;94439.00;;;9.71;84.44
79285;BME280;68734;50.452;11.636;2023-03-24T07:56:13;94438.91;;;9.82;82.62
79285;BME280;68734;50.452;11.636;2023-03-24T07:58:39;94463.09;;;9.92;82.79
79285;BME280;68734;50.452;11.636;2023-03-24T08:01:06;94451.13;;;10.03;82.75
79285;BME280;68734;50.452;11.636;2023-03-24T08:03:35;94437.66;;;10.03;82.61
79285;BME280;68734;50.452;11.636;2023-03-24T08:06:02;94436.03;;;10.02;82.01
79285;BME280;68734;50.452;11.636;2023-03-24T08:08:28;94420.44;;;9.99;81.90
79285;BME280;68734;50.452;11.636;2023-03-24T08:10:53;94433.19;;;10.17;82.47
79285;BME280;68734;50.452;11.636;2023-03-24T08:13:21;94440.16;;;10.24;81.80
79285;BME280;68734;50.452;11.636;2023-03-24T08:15:47;94436.94;;;10.22;81.73
79285;BME280;68734;50.452;11.636;2023-03-24T08:18:12;94432.56;;;10.26;81.45
79285;BME280;68734;50.452;11.636;2023-03-24T08:20:37;94437.09;;;10.35;81.77
79285;BME280;68734;50.452;11.636;2023-03-24T08:23:03;94425.75;;;10.38;80.99
79285;BME280;68734;50.452;11.636;2023-03-24T08:25:29;94448.56;;;10.46;80.39
79285;BME280;68734;50.452;11.636;2023-03-24T08:27:57;94466.75;;;10.65;81.65
79285;BME280;68734;50.452;11.636;2023-03-24T08:30:25;94458.69;;;10.84;80.96
79285;BME280;68734;50.452;11.636;2023-03-24T08:32:56;94437.66;;;11.05;80.20
79285;BME280;68734;50.452;11.636;2023-03-24T08:35:29;94436.13;;;11.17;76.63
79285;BME280;68734;50.452;11.636;2023-03-24T08:37:55;94444.31;;;11.31;78.87
79285;BME280;68734;50.452;11.636;2023-03-24T08:40:24;94436.72;;;11.33;77.99
79285;BME280;68734;50.452;11.636;2023-03-24T08:42:54;94442.59;;;11.73;76.49
79285;BME280;68734;50.452;11.636;2023-03-24T08:45:21;94436.31;;;11.97;74.59
79285;BME280;68734;50.452;11.636;2023-03-24T08:47:49;94440.28;;;12.32;73.71
79285;BME280;68734;50.452;11.636;2023-03-24T08:50:20;94435.59;;;12.38;74.94
79285;BME280;68734;50.452;11.636;2023-03-24T08:52:46;94438.41;;;12.47;73.07
79285;BME280;68734;50.452;11.636;2023-03-24T08:55:16;94430.19;;;12.66;74.12
79285;BME280;68734;50.452;11.636;2023-03-24T08:57:42;94427.78;;;12.78;71.49
79285;BME280;68734;50.452;11.636;2023-03-24T09:00:08;94437.00;;;12.91;71.31
79285;BME280;68734;50.452;11.636;2023-03-24T09:02:37;94428.59;;;12.92;72.02
79285;BME280;68734;50.452;11.636;2023-03-24T09:05:03;94431.19;;;12.97;69.92
79285;BME280;68734;50.452;11.636;2023-03-24T09:07:31;94425.56;;;12.38;72.04
79285;BME280;68734;50.452;11.636;2023-03-24T09:09:56;94421.22;;;12.24;72.33
79285;BME280;68734;50.452;11.636;2023-03-24T09:12:22;94420.91;;;12.11;73.09
79285;BME280;68734;50.452;11.636;2023-03-24T09:14:48;94435.31;;;11.93;74.29
79285;BME280;68734;50.452;11.636;2023-03-24T09:17:14;94446.63;;;11.76;74.16
79285;BME280;68734;50.452;11.636;2023-03-24T09:19:40;94467.78;;;11.55;74.57
79285;BME280;68734;50.452;11.636;2023-03-24T09:22:05;94447.66;;;11.42;75.03
79285;BME280;68734;50.452;11.636;2023-03-24T09:24:31;94437.44;;;11.58;74.22
79285;BME280;68734;50.452;11.636;2023-03-24T09:26:56;94440.78;;;11.69;73.83
79285;BME280;68734;50.452;11.636;2023-03-24T09:29:22;94443.69;;;11.72;74.35
79285;BME280;68734;50.452;11.636;2023-03-24T09:31:50;94455.59;;;12.09;73.09
79285;BME280;68734;50.452;11.636;2023-03-24T09:34:16;94453.72;;;12.24;72.61
79285;BME280;68734;50.452;11.636;2023-03-24T09:36:41;94437.22;;;12.39;72.09
79285;BME280;68734;50.452;11.636;2023-03-24T09:39:07;94435.81;;;12.55;71.68
79285;BME280;68734;50.452;11.636;2023-03-24T09:41:32;94436.22;;;12.49;71.53
79285;BME280;68734;50.452;11.636;2023-03-24T09:44:21;94449.31;;;12.28;71.79
79285;BME280;68734;50.452;11.636;2023-03-24T09:46:58;94436.66;;;12.09;72.14
79285;BME280;68734;50.452;11.636;2023-03-24T09:49:33;94432.94;;;12.05;72.76
79285;BME280;68734;50.452;11.636;2023-03-24T09:52:06;94413.66;;;11.93;73.01
79285;BME280;68734;50.452;11.636;2023-03-24T09:57:18;94405.88;;;12.05;71.80
79285;BME280;68734;50.452;11.636;2023-03-24T09:59:45;94394.03;;;12.01;73.01
79285;BME280;68734;50.452;11.636;2023-03-24T10:02:13;94400.09;;;12.26;72.30
79285;BME280;68734;50.452;11.636;2023-03-24T10:04:40;94402.97;;;12.15;71.70
79285;BME280;68734;50.452;11.636;2023-03-24T10:07:17;94418.72;;;12.13;72.43
79285;BME280;68734;50.452;11.636;2023-03-24T10:09:55;94417.34;;;12.30;72.08
79285;BME280;68734;50.452;11.636;2023-03-24T10:15:25;94415.75;;;12.56;71.09
79285;BME280;68734;50.452;11.636;2023-03-24T10:20:51;94425.38;;;12.49;72.69
79285;BME280;68734;50.452;11.636;2023-03-24T10:23:35;94405.69;;;12.15;72.98
79285;BME280;68734;50.452;11.636;2023-03-24T10:26:09;94402.03;;;12.06;73.76
79285;BME280;68734;50.452;11.636;2023-03-24T10:31:12;94418.78;;;11.75;73.75
79285;BME280;68734;50.452;11.636;2023-03-24T10:33:42;94428.75;;;11.61;74.63
79285;BME280;68734;50.452;11.636;2023-03-24T10:36:19;94428.81;;;11.37;75.33
79285;BME280;68734;50.452;11.636;2023-03-24T10:38:45;94429.13;;;11.35;75.52
79285;BME280;68734;50.452;11.636;2023-03-24T10:41:22;94422.25;;;11.43;75.30
79285;BME280;68734;50.452;11.636;2023-03-24T10:43:49;94406.88;;;11.57;74.57
79285;BME280;68734;50.452;11.636;2023-03-24T10:46:21;94437.25;;;11.68;74.05
79285;BME280;68734;50.452;11.636;2023-03-24T10:48:52;94440.06;;;11.63;75.38
79285;BME280;68734;50.452;11.636;2023-03-24T10:51:27;94411.28;;;11.53;75.06
79285;BME280;68734;50.452;11.636;2023-03-24T10:54:11;94416.50;;;11.83;74.55
79285;BME280;68734;50.452;11.636;2023-03-24T10:56:41;94406.25;;;11.80;73.80
79285;BME280;68734;50.452;11.636;2023-03-24T10:59:22;94409.94;;;11.70;73.80
79285;BME280;68734;50.452;11.636;2023-03-24T11:04:40;94422.47;;;11.47;75.24
79285;BME280;68734;50.452;11.636;2023-03-24T11:07:18;94414.81;;;11.35;75.96
79285;BME280;68734;50.452;11.636;2023-03-24T11:09:55;94418.34;;;11.30;75.80
79285;BME280;68734;50.452;11.636;2023-03-24T11:12:26;94409.16;;;11.12;76.11
79285;BME280;68734;50.452;11.636;2023-03-24T11:15:01;94410.25;;;11.11;76.76
79285;BME280;68734;50.452;11.636;2023-03-24T11:17:29;94412.69;;;11.13;76.43
79285;BME280;68734;50.452;11.636;2023-03-24T11:19:56;94407.19;;;11.18;75.72
79285;BME280;68734;50.452;11.636;2023-03-24T11:22:24;94423.81;;;11.06;77.06
79285;BME280;68734;50.452;11.636;2023-03-24T11:24:53;94418.09;;;11.13;76.09
79285;BME280;68734;50.452;11.636;2023-03-24T11:27:19;94397.19;;;11.37;75.25
79285;BME280;68734;50.452;11.636;2023-03-24T11:29:53;94407.78;;;11.53;75.13
79285;BME280;68734;50.452;11.636;2023-03-24T11:32:26;94409.06;;;11.55;74.68
79285;BME280;68734;50.452;11.636;2023-03-24T11:35:15;94403.03;;;11.45;75.02
79285;BME280;68734;50.452;11.636;2023-03-24T11:37:42;94399.38;;;11.35;75.13
79285;BME280;68734;50.452;11.636;2023-03-24T11:42:51;94409.47;;;11.82;74.16
79285;BME280;68734;50.452;11.636;2023-03-24T11:47:56;94396.97;;;11.86;72.83
79285;BME280;68734;50.452;11.636;2023-03-24T11:50:32;94380.47;;;11.68;73.15
79285;BME280;68734;50.452;11.636;2023-03-24T11:53:11;94391.84;;;12.03;73.61
79285;BME280;68734;50.452;11.636;2023-03-24T11:56:20;94381.00;;;12.03;72.76
79285;BME280;68734;50.452;11.636;2023-03-24T12:24:02;94375.66;;;11.65;74.60
79285;BME280;68734;50.452;11.636;2023-03-24T12:26:32;94376.34;;;11.90;74.81
79285;BME280;68734;50.452;11.636;2023-03-24T12:34:35;94380.81;;;12.13;72.45
79285;BME280;68734;50.452;11.636;2023-03-24T12:43:12;94376.00;;;12.24;71.64
79285;BME280;68734;50.452;11.636;2023-03-24T12:46:08;94404.69;;;12.25;70.61
79285;BME280;68734;50.452;11.636;2023-03-24T12:57:44;94470.13;;;9.09;80.07
79285;BME280;68734;50.452;11.636;2023-03-24T13:00:20;94485.81;;;8.91;83.08
79285;BME280;68734;50.452;11.636;2023-03-24T13:02:57;94492.63;;;8.78;83.97
79285;BME280;68734;50.452;11.636;2023-03-24T13:05:29;94484.38;;;8.44;84.46
79285;BME280;68734;50.452;11.636;2023-03-24T13:07:59;94502.88;;;8.61;83.74
79285;BME280;68734;50.452;11.636;2023-03-24T13:10:28;94502.91;;;8.41;84.27
79285;BME280;68734;50.452;11.636;2023-03-24T13:13:15;94509.53;;;8.89;84.33
79285;BME280;68734;50.452;11.636;2023-03-24T13:15:54;94481.38;;;9.21;82.78
79285;BME280;68734;50.452;11.636;2023-03-24T13:21:03;94485.28;;;8.94;83.49
79285;BME280;68734;50.452;11.636;2023-03-24T13:31:56;94517.88;;;8.88;82.77
79285;BME280;68734;50.452;11.636;2023-03-24T13:34:26;94532.72;;;8.80;82.78
79285;BME280;68734;50.452;11.636;2023-03-24T13:36:58;94521.88;;;9.01;81.53
79285;BME280;68734;50.452;11.636;2023-03-24T13:39:27;94528.38;;;8.94;80.28
79285;BME280;68734;50.452;11.636;2023-03-24T13:41:55;94531.44;;;8.62;80.30
79285;BME280;68734;50.452;11.636;2023-03-24T13:44:29;94529.78;;;8.71;81.93
79285;BME280;68734;50.452;11.636;2023-03-24T13:47:12;94520.63;;;8.72;79.54
79285;BME280;68734;50.452;11.636;2023-03-24T13:49:40;94531.06;;;8.94;78.04
79285;BME280;68734;50.452;11.636;2023-03-24T13:53:05;94511.16;;;8.90;79.42
79285;BME280;68734;50.452;11.636;2023-03-24T13:55:29;94517.06;;;8.87;77.32
79285;BME280;68734;50.452;11.636;2023-03-24T13:58:18;94518.66;;;8.98;78.39
79285;BME280;68734;50.452;11.636;2023-03-24T14:03:41;94506.31;;;8.87;76.36
79285;BME280;68734;50.452;11.636;2023-03-24T14:06:14;94499.81;;;8.93;77.68
79285;BME280;68734;50.452;11.636;2023-03-24T14:09:00;94495.44;;;9.08;76.62
79285;BME280;68734;50.452;11.636;2023-03-24T14:16:41;94475.41;;;9.29;74.54
79285;BME280;68734;50.452;11.636;2023-03-24T14:22:43;94475.78;;;9.57;72.84
79285;BME280;68734;50.452;11.636;2023-03-24T14:25:27;94469.88;;;9.50;73.98
79285;BME280;68734;50.452;11.636;2023-03-24T14:27:53;94472.56;;;9.50;72.31
79285;BME280;68734;50.452;11.636;2023-03-24T14:30:30;94450.34;;;9.68;73.63
79285;BME280;68734;50.452;11.636;2023-03-24T14:32:58;94441.00;;;9.90;72.47
79285;BME280;68734;50.452;11.636;2023-03-24T14:35:35;94452.56;;;10.25;72.64
79285;BME280;68734;50.452;11.636;2023-03-24T14:38:04;94461.47;;;10.54;69.84
79285;BME280;68734;50.452;11.636;2023-03-24T14:40:36;94467.31;;;10.62;69.45
79285;BME280;68734;50.452;11.636;2023-03-24T14:45:50;94456.91;;;10.21;69.89
79285;BME280;68734;50.452;11.636;2023-03-24T14:48:33;94470.88;;;10.33;68.44
79285;BME280;68734;50.452;11.636;2023-03-24T14:53:36;94453.81;;;10.08;67.95
79285;BME280;68734;50.452;11.636;2023-03-24T14:56:08;94461.44;;;9.96;68.78
79285;BME280;68734;50.452;11.636;2023-03-24T14:58:39;94457.66;;;9.97;70.98
79285;BME280;68734;50.452;11.636;2023-03-24T15:01:08;94466.44;;;9.78;68.29
79285;BME280;68734;50.452;11.636;2023-03-24T15:03:41;94477.31;;;9.68;69.06
79285;BME280;68734;50.452;11.636;2023-03-24T15:06:14;94458.47;;;9.63;69.04
79285;BME280;68734;50.452;11.636;2023-03-24T15:08:53;94451.72;;;9.66;68.60
79285;BME280;68734;50.452;11.636;2023-03-24T15:11:22;94469.78;;;9.65;69.44
79285;BME280;68734;50.452;11.636;2023-03-24T15:13:51;94479.78;;;9.59;68.22
79285;BME280;68734;50.452;11.636;2023-03-24T15:16:27;94483.34;;;9.55;68.53
79285;BME280;68734;50.452;11.636;2023-03-24T15:18:59;94492.53;;;9.49;67.35
79285;BME280;68734;50.452;11.636;2023-03-24T15:26:45;94487.78;;;9.75;67.63
79285;BME280;68734;50.452;11.636;2023-03-24T15:29:10;94489.75;;;9.64;67.38
79285;BME280;68734;50.452;11.636;2023-03-24T15:31:36;94498.63;;;9.65;68.31
79285;BME280;68734;50.452;11.636;2023-03-24T15:34:21;94504.81;;;9.65;68.62
79285;BME280;68734;50.452;11.636;2023-03-24T15:36:52;94483.34;;;9.55;69.10
79285;BME280;68734;50.452;11.636;2023-03-24T15:39:20;94491.94;;;9.57;69.68
79285;BME280;68734;50.452;11.636;2023-03-24T15:41:49;94494.72;;;9.42;69.69
79285;BME280;68734;50.452;11.636;2023-03-24T15:44:20;94489.97;;;9.28;69.79
79285;BME280;68734;50.452;11.636;2023-03-24T15:46:48;94486.25;;;9.14;69.91
79285;BME280;68734;50.452;11.636;2023-03-24T15:49:23;94496.00;;;9.05;70.08
79285;BME280;68734;50.452;11.636;2023-03-24T15:52:00;94492.78;;;9.03;70.85